sensor_id;sensor_type;location;lat;lon;timestamp;pressure;altitude;pressure_sealevel;temperature;humidity
68508;BME280;55510;49.560;19.090;2023-02-10T00:02:37;98190.97;;;-10.62;85.14
68508;BME280;55510;49.560;19.090;2023-02-10T00:05:37;98194.88;;;-10.53;84.49
68508;BME280;55510;49.560;19.090;2023-02-10T00:08:39;98185.22;;;-10.48;83.77
68508;BME280;55510;49.560;19.090;2023-02-10T00:11:40;98193.84;;;-10.49;83.41
68508;BME280;55510;49.560;19.090;2023-02-10T00:15:03;98183.75;;;-10.54;83.75
68508;BME280;55510;49.560;19.090;2023-02-10T00:18:04;98179.06;;;-10.65;82.88
68508;BME280;55510;49.560;19.090;2023-02-10T00:21:14;98169.50;;;-10.82;83.18
68508;BME280;55510;49.560;19.090;2023-02-10T00:24:15;98172.19;;;-10.85;83.29
68508;BME280;55510;49.560;19.090;2023-02-10T00:27:16;98178.69;;;-10.97;83.31
68508;BME280;55510;49.560;19.090;2023-02-10T00:30:21;98169.44;;;-11.01;83.14
68508;BME280;55510;49.560;19.090;2023-02-10T00:33:21;98177.47;;;-11.09;83.46
68508;BME280;55510;49.560;19.090;2023-02-10T00:36:22;98162.69;;;-11.24;83.89
68508;BME280;55510;49.560;19.090;2023-02-10T00:39:25;98165.44;;;-11.29;84.34
68508;BME280;55510;49.560;19.090;2023-02-10T00:42:25;98167.34;;;-11.34;84.55
68508;BME280;55510;49.560;19.090;2023-02-10T00:45:26;98158.34;;;-11.44;84.41
68508;BME280;55510;49.560;19.090;2023-02-10T00:48:26;98159.47;;;-11.52;84.66
68508;BME280;55510;49.560;19.090;2023-02-10T00:51:27;98159.47;;;-11.52;84.73
68508;BME280;55510;49.560;19.090;2023-02-10T00:54:28;98161.25;;;-11.54;84.84
68508;BME280;55510;49.560;19.090;2023-02-10T00:57:29;98170.13;;;-11.61;84.90
68508;BME280;55510;49.560;19.090;2023-02-10T01:00:29;98178.47;;;-11.78;85.09
68508;BME280;55510;49.560;19.090;2023-02-10T01:03:30;98177.78;;;-11.82;85.60
68508;BME280;55510;49.560;19.090;2023-02-10T01:06:31;98173.47;;;-11.81;85.79
68508;BME280;55510;49.560;19.090;2023-02-10T01:09:32;98180.34;;;-11.82;86.04
68508;BME280;55510;49.560;19.090;2023-02-10T01:12:33;98178.59;;;-11.81;86.12
68508;BME280;55510;49.560;19.090;2023-02-10T01:15:34;98177.28;;;-11.69;86.85
68508;BME280;55510;49.560;19.090;2023-02-10T01:18:35;98182.69;;;-11.53;87.20
68508;BME280;55510;49.560;19.090;2023-02-10T01:21:36;98179.19;;;-11.30;86.75
68508;BME280;55510;49.560;19.090;2023-02-10T01:24:38;98172.72;;;-11.18;85.27
68508;BME280;55510;49.560;19.090;2023-02-10T01:27:39;98174.69;;;-11.25;84.95
68508;BME280;55510;49.560;19.090;2023-02-10T01:30:40;98177.69;;;-11.36;83.98
68508;BME280;55510;49.560;19.090;2023-02-10T01:33:41;98174.53;;;-11.42;83.68
68508;BME280;55510;49.560;19.090;2023-02-10T01:36:44;98180.41;;;-11.61;83.91
68508;BME280;55510;49.560;19.090;2023-02-10T01:39:45;98168.56;;;-11.65;84.29
68508;BME280;55510;49.560;19.090;2023-02-10T01:42:45;98166.19;;;-11.70;84.80
68508;BME280;55510;49.560;19.090;2023-02-10T01:45:46;98160.56;;;-11.80;85.10
68508;BME280;55510;49.560;19.090;2023-02-10T01:48:47;98149.03;;;-11.69;85.66
68508;BME280;55510;49.560;19.090;2023-02-10T01:54:59;98132.97;;;-11.74;85.83
68508;BME280;55510;49.560;19.090;2023-02-10T01:58:06;98141.72;;;-11.78;85.42
68508;BME280;55510;49.560;19.090;2023-02-10T02:01:08;98152.28;;;-12.08;84.36
68508;BME280;55510;49.560;19.090;2023-02-10T02:04:09;98146.50;;;-12.38;84.33
68508;BME280;55510;49.560;19.090;2023-02-10T02:07:10;98137.97;;;-12.38;84.71
68508;BME280;55510;49.560;19.090;2023-02-10T02:10:11;98148.34;;;-12.41;85.29
68508;BME280;55510;49.560;19.090;2023-02-10T02:40:06;98122.41;;;-12.57;87.04
68508;BME280;55510;49.560;19.090;2023-02-10T02:43:07;98120.13;;;-12.41;87.19
68508;BME280;55510;49.560;19.090;2023-02-10T02:46:14;98118.84;;;-12.29;87.64
68508;BME280;55510;49.560;19.090;2023-02-10T02:49:37;98121.09;;;-12.21;87.72
68508;BME280;55510;49.560;19.090;2023-02-10T02:59:24;98132.09;;;-12.18;86.81
68508;BME280;55510;49.560;19.090;2023-02-10T03:02:27;98122.34;;;-12.32;85.93
68508;BME280;55510;49.560;19.090;2023-02-10T03:05:31;98117.44;;;-12.38;86.57
68508;BME280;55510;49.560;19.090;2023-02-10T03:08:34;98134.56;;;-12.39;86.90
68508;BME280;55510;49.560;19.090;2023-02-10T03:11:36;98142.72;;;-12.51;86.35
68508;BME280;55510;49.560;19.090;2023-02-10T03:14:38;98137.81;;;-12.57;86.24
68508;BME280;55510;49.560;19.090;2023-02-10T03:17:39;98135.25;;;-12.57;86.42
68508;BME280;55510;49.560;19.090;2023-02-10T03:20:40;98133.69;;;-12.61;86.63
68508;BME280;55510;49.560;19.090;2023-02-10T03:23:41;98134.25;;;-12.77;86.29
68508;BME280;55510;49.560;19.090;2023-02-10T03:26:42;98136.69;;;-12.74;87.13
68508;BME280;55510;49.560;19.090;2023-02-10T03:29:43;98141.59;;;-12.68;87.18
68508;BME280;55510;49.560;19.090;2023-02-10T03:32:44;98145.72;;;-12.63;87.35
68508;BME280;55510;49.560;19.090;2023-02-10T03:35:46;98156.88;;;-12.64;87.20
68508;BME280;55510;49.560;19.090;2023-02-10T03:38:48;98161.13;;;-12.63;87.35
68508;BME280;55510;49.560;19.090;2023-02-10T03:41:48;98136.88;;;-12.55;87.91
68508;BME280;55510;49.560;19.090;2023-02-10T03:44:49;98145.41;;;-12.30;87.75
68508;BME280;55510;49.560;19.090;2023-02-10T03:47:49;98147.91;;;-12.29;87.23
68508;BME280;55510;49.560;19.090;2023-02-10T03:50:50;98145.16;;;-12.24;87.22
68508;BME280;55510;49.560;19.090;2023-02-10T03:53:51;98141.25;;;-12.11;87.21
68508;BME280;55510;49.560;19.090;2023-02-10T03:56:51;98147.22;;;-12.10;87.79
68508;BME280;55510;49.560;19.090;2023-02-10T03:59:52;98155.63;;;-12.06;88.12
68508;BME280;55510;49.560;19.090;2023-02-10T04:02:53;98143.53;;;-12.03;88.20
68508;BME280;55510;49.560;19.090;2023-02-10T04:05:54;98135.75;;;-12.01;88.01
68508;BME280;55510;49.560;19.090;2023-02-10T04:08:55;98146.00;;;-12.01;86.99
68508;BME280;55510;49.560;19.090;2023-02-10T04:11:56;98153.19;;;-12.10;86.32
68508;BME280;55510;49.560;19.090;2023-02-10T04:14:57;98147.66;;;-12.22;86.17
68508;BME280;55510;49.560;19.090;2023-02-10T04:17:57;98140.19;;;-12.29;86.33
68508;BME280;55510;49.560;19.090;2023-02-10T04:20:58;98141.97;;;-12.31;86.23
68508;BME280;55510;49.560;19.090;2023-02-10T04:24:01;98143.53;;;-12.27;86.42
68508;BME280;55510;49.560;19.090;2023-02-10T04:27:02;98144.16;;;-12.20;85.82
68508;BME280;55510;49.560;19.090;2023-02-10T04:30:02;98150.41;;;-12.27;85.89
68508;BME280;55510;49.560;19.090;2023-02-10T04:33:03;98147.63;;;-12.21;86.30
68508;BME280;55510;49.560;19.090;2023-02-10T04:36:04;98142.53;;;-12.22;87.11
68508;BME280;55510;49.560;19.090;2023-02-10T04:39:05;98140.09;;;-12.26;87.14
68508;BME280;55510;49.560;19.090;2023-02-10T04:42:06;98145.88;;;-12.20;87.13
68508;BME280;55510;49.560;19.090;2023-02-10T04:45:07;98145.75;;;-12.17;86.48
68508;BME280;55510;49.560;19.090;2023-02-10T04:48:11;98156.91;;;-12.18;86.12
68508;BME280;55510;49.560;19.090;2023-02-10T04:51:12;98158.00;;;-12.24;85.95
68508;BME280;55510;49.560;19.090;2023-02-10T04:54:13;98163.47;;;-12.33;85.96
68508;BME280;55510;49.560;19.090;2023-02-10T04:57:14;98160.06;;;-12.34;86.38
68508;BME280;55510;49.560;19.090;2023-02-10T05:00:14;98153.38;;;-12.38;86.76
68508;BME280;55510;49.560;19.090;2023-02-10T05:03:15;98152.44;;;-12.35;87.13
68508;BME280;55510;49.560;19.090;2023-02-10T05:06:16;98152.53;;;-12.39;87.08
68508;BME280;55510;49.560;19.090;2023-02-10T05:09:17;98146.63;;;-12.41;87.11
68508;BME280;55510;49.560;19.090;2023-02-10T05:12:17;98151.75;;;-12.41;87.04
68508;BME280;55510;49.560;19.090;2023-02-10T05:15:18;98160.28;;;-12.40;87.57
68508;BME280;55510;49.560;19.090;2023-02-10T05:18:19;98162.78;;;-12.39;87.72
68508;BME280;55510;49.560;19.090;2023-02-10T05:21:20;98166.22;;;-12.14;88.54
68508;BME280;55510;49.560;19.090;2023-02-10T05:24:20;98163.56;;;-11.90;89.68
68508;BME280;55510;49.560;19.090;2023-02-10T05:27:22;98164.69;;;-11.75;89.71
68508;BME280;55510;49.560;19.090;2023-02-10T05:30:26;98150.31;;;-11.80;88.70
68508;BME280;55510;49.560;19.090;2023-02-10T05:33:27;98169.22;;;-11.82;87.27
68508;BME280;55510;49.560;19.090;2023-02-10T05:36:28;98167.63;;;-11.85;87.34
68508;BME280;55510;49.560;19.090;2023-02-10T05:39:28;98173.00;;;-11.91;87.45
68508;BME280;55510;49.560;19.090;2023-02-10T05:42:29;98174.00;;;-11.95;87.63
68508;BME280;55510;49.560;19.090;2023-02-10T05:45:30;98181.88;;;-12.00;87.87
68508;BME280;55510;49.560;19.090;2023-02-10T05:48:30;98205.19;;;-12.04;87.84
68508;BME280;55510;49.560;19.090;2023-02-10T05:51:31;98207.09;;;-12.10;87.18
68508;BME280;55510;49.560;19.090;2023-02-10T05:54:32;98210.38;;;-12.30;86.48
68508;BME280;55510;49.560;19.090;2023-02-10T05:57:33;98194.38;;;-12.13;87.90
68508;BME280;55510;49.560;19.090;2023-02-10T06:00:33;98183.75;;;-12.03;87.96
68508;BME280;55510;49.560;19.090;2023-02-10T06:03:34;98194.72;;;-12.00;87.40
68508;BME280;55510;49.560;19.090;2023-02-10T06:06:35;98197.22;;;-11.98;86.81
68508;BME280;55510;49.560;19.090;2023-02-10T06:09:36;98205.13;;;-12.03;87.11
68508;BME280;55510;49.560;19.090;2023-02-10T06:12:36;98203.88;;;-11.92;87.00
68508;BME280;55510;49.560;19.090;2023-02-10T06:15:37;98209.03;;;-11.94;86.44
68508;BME280;55510;49.560;19.090;2023-02-10T06:18:38;98204.16;;;-12.00;86.42
68508;BME280;55510;49.560;19.090;2023-02-10T06:21:42;98206.03;;;-12.04;86.01
68508;BME280;55510;49.560;19.090;2023-02-10T06:24:43;98197.66;;;-12.09;86.46
68508;BME280;55510;49.560;19.090;2023-02-10T06:27:43;98206.31;;;-12.12;86.59
68508;BME280;55510;49.560;19.090;2023-02-10T06:30:44;98216.69;;;-12.15;86.10
68508;BME280;55510;49.560;19.090;2023-02-10T06:33:45;98224.66;;;-12.22;86.60
68508;BME280;55510;49.560;19.090;2023-02-10T06:36:46;98215.34;;;-12.25;86.79
68508;BME280;55510;49.560;19.090;2023-02-10T06:39:47;98222.69;;;-12.14;86.62
68508;BME280;55510;49.560;19.090;2023-02-10T06:42:47;98226.72;;;-12.08;85.87
68508;BME280;55510;49.560;19.090;2023-02-10T06:45:48;98231.03;;;-12.09;86.24
68508;BME280;55510;49.560;19.090;2023-02-10T06:48:49;98228.03;;;-11.98;86.06
68508;BME280;55510;49.560;19.090;2023-02-10T06:51:50;98218.75;;;-12.01;85.64
68508;BME280;55510;49.560;19.090;2023-02-10T06:54:50;98229.38;;;-11.88;85.78
68508;BME280;55510;49.560;19.090;2023-02-10T06:57:51;98231.06;;;-11.87;85.25
68508;BME280;55510;49.560;19.090;2023-02-10T07:00:52;98227.59;;;-11.86;85.10
68508;BME280;55510;49.560;19.090;2023-02-10T07:03:52;98224.78;;;-11.80;84.54
68508;BME280;55510;49.560;19.090;2023-02-10T07:06:53;98230.94;;;-11.84;84.33
68508;BME280;55510;49.560;19.090;2023-02-10T07:09:54;98235.09;;;-11.81;84.60
68508;BME280;55510;49.560;19.090;2023-02-10T07:12:55;98237.28;;;-11.70;84.61
68508;BME280;55510;49.560;19.090;2023-02-10T07:15:56;98236.25;;;-11.66;84.85
68508;BME280;55510;49.560;19.090;2023-02-10T07:18:56;98237.00;;;-11.62;85.02
68508;BME280;55510;49.560;19.090;2023-02-10T07:21:57;98240.03;;;-11.53;84.36
68508;BME280;55510;49.560;19.090;2023-02-10T07:24:58;98226.72;;;-11.40;85.05
68508;BME280;55510;49.560;19.090;2023-02-10T07:27:59;98231.63;;;-11.13;85.23
68508;BME280;55510;49.560;19.090;2023-02-10T07:30:59;98236.50;;;-10.85;84.98
68508;BME280;55510;49.560;19.090;2023-02-10T07:34:01;98231.81;;;-10.54;83.93
68508;BME280;55510;49.560;19.090;2023-02-10T07:37:04;98234.13;;;-10.29;83.94
68508;BME280;55510;49.560;19.090;2023-02-10T07:40:05;98231.44;;;-10.07;82.33
68508;BME280;55510;49.560;19.090;2023-02-10T07:43:06;98226.84;;;-9.81;81.18
68508;BME280;55510;49.560;19.090;2023-02-10T07:46:07;98231.28;;;-9.09;80.63
68508;BME280;55510;49.560;19.090;2023-02-10T07:49:07;98220.06;;;-5.35;67.47
68508;BME280;55510;49.560;19.090;2023-02-10T07:52:08;98196.72;;;-1.77;59.95
68508;BME280;55510;49.560;19.090;2023-02-10T07:55:09;98205.34;;;0.68;50.13
68508;BME280;55510;49.560;19.090;2023-02-10T07:58:10;98222.78;;;2.34;43.46
68508;BME280;55510;49.560;19.090;2023-02-10T08:01:11;98225.44;;;3.52;39.13
68508;BME280;55510;49.560;19.090;2023-02-10T08:04:12;98229.13;;;4.98;37.72
68508;BME280;55510;49.560;19.090;2023-02-10T08:07:13;98233.13;;;6.50;36.17
68508;BME280;55510;49.560;19.090;2023-02-10T08:10:14;98241.00;;;7.45;32.06
68508;BME280;55510;49.560;19.090;2023-02-10T08:13:14;98248.19;;;7.97;30.27
68508;BME280;55510;49.560;19.090;2023-02-10T08:16:15;98246.28;;;8.21;28.79
68508;BME280;55510;49.560;19.090;2023-02-10T08:19:16;98240.19;;;8.51;28.47
68508;BME280;55510;49.560;19.090;2023-02-10T08:22:17;98231.59;;;5.91;30.89
68508;BME280;55510;49.560;19.090;2023-02-10T08:25:17;98239.81;;;3.03;35.33
68508;BME280;55510;49.560;19.090;2023-02-10T08:28:19;98233.84;;;0.52;40.14
68508;BME280;55510;49.560;19.090;2023-02-10T08:31:20;98236.22;;;-1.04;44.73
68508;BME280;55510;49.560;19.090;2023-02-10T08:34:21;98226.53;;;0.55;43.00
68508;BME280;55510;49.560;19.090;2023-02-10T08:37:22;98238.59;;;4.74;38.26
68508;BME280;55510;49.560;19.090;2023-02-10T08:40:25;98246.16;;;7.84;31.91
68508;BME280;55510;49.560;19.090;2023-02-10T08:43:26;98233.53;;;10.07;29.67
68508;BME280;55510;49.560;19.090;2023-02-10T08:46:27;98239.81;;;11.45;26.83
68508;BME280;55510;49.560;19.090;2023-02-10T08:49:28;98238.56;;;12.49;24.02
68508;BME280;55510;49.560;19.090;2023-02-10T08:52:29;98250.97;;;13.60;22.90
68508;BME280;55510;49.560;19.090;2023-02-10T08:55:30;98251.66;;;13.48;23.29
68508;BME280;55510;49.560;19.090;2023-02-10T08:58:31;98253.13;;;13.76;23.35
68508;BME280;55510;49.560;19.090;2023-02-10T09:01:32;98250.69;;;14.56;23.20
68508;BME280;55510;49.560;19.090;2023-02-10T09:04:33;98251.81;;;13.54;22.36
68508;BME280;55510;49.560;19.090;2023-02-10T09:07:33;98260.75;;;13.02;23.83
68508;BME280;55510;49.560;19.090;2023-02-10T09:10:34;98256.59;;;13.45;23.48
68508;BME280;55510;49.560;19.090;2023-02-10T09:13:35;98265.13;;;12.83;22.63
68508;BME280;55510;49.560;19.090;2023-02-10T09:16:36;98249.66;;;13.37;23.77
68508;BME280;55510;49.560;19.090;2023-02-10T09:19:37;98245.91;;;12.60;23.80
68508;BME280;55510;49.560;19.090;2023-02-10T09:22:41;98254.75;;;12.61;25.02
68508;BME280;55510;49.560;19.090;2023-02-10T09:25:42;98250.41;;;14.46;23.05
68508;BME280;55510;49.560;19.090;2023-02-10T09:28:43;98254.41;;;13.67;23.36
68508;BME280;55510;49.560;19.090;2023-02-10T09:31:43;98257.81;;;16.15;21.57
68508;BME280;55510;49.560;19.090;2023-02-10T09:34:44;98250.31;;;16.53;20.82
68508;BME280;55510;49.560;19.090;2023-02-10T09:37:46;98235.66;;;14.92;21.36
68508;BME280;55510;49.560;19.090;2023-02-10T09:41:09;98240.19;;;14.36;22.61
68508;BME280;55510;49.560;19.090;2023-02-10T09:50:50;98237.88;;;14.96;21.61
68508;BME280;55510;49.560;19.090;2023-02-10T09:53:53;98236.59;;;14.05;22.48
68508;BME280;55510;49.560;19.090;2023-02-10T09:56:54;98234.44;;;13.70;23.15
68508;BME280;55510;49.560;19.090;2023-02-10T09:59:56;98230.00;;;12.79;23.48
68508;BME280;55510;49.560;19.090;2023-02-10T10:02:59;98221.31;;;12.45;24.53
68508;BME280;55510;49.560;19.090;2023-02-10T10:12:16;98226.28;;;11.34;25.54
68508;BME280;55510;49.560;19.090;2023-02-10T10:15:18;98233.50;;;9.28;26.81
68508;BME280;55510;49.560;19.090;2023-02-10T10:18:37;98235.94;;;8.41;29.77
68508;BME280;55510;49.560;19.090;2023-02-10T10:35:42;98219.75;;;9.03;30.15
68508;BME280;55510;49.560;19.090;2023-02-10T10:38:53;98217.06;;;7.76;32.25
68508;BME280;55510;49.560;19.090;2023-02-10T10:41:55;98210.47;;;7.10;33.31
68508;BME280;55510;49.560;19.090;2023-02-10T10:45:11;98206.59;;;6.27;35.15
68508;BME280;55510;49.560;19.090;2023-02-10T10:48:16;98209.53;;;6.40;35.10
68508;BME280;55510;49.560;19.090;2023-02-10T10:51:18;98205.84;;;7.13;34.94
68508;BME280;55510;49.560;19.090;2023-02-10T10:54:21;98209.53;;;8.33;32.14
68508;BME280;55510;49.560;19.090;2023-02-10T10:57:23;98200.34;;;8.36;30.98
68508;BME280;55510;49.560;19.090;2023-02-10T11:00:26;98194.34;;;9.16;30.90
68508;BME280;55510;49.560;19.090;2023-02-10T11:03:29;98186.22;;;10.02;29.33
68508;BME280;55510;49.560;19.090;2023-02-10T11:06:34;98206.16;;;10.55;28.59
68508;BME280;55510;49.560;19.090;2023-02-10T11:09:39;98210.72;;;11.64;27.15
68508;BME280;55510;49.560;19.090;2023-02-10T11:12:44;98202.09;;;11.55;26.68
68508;BME280;55510;49.560;19.090;2023-02-10T11:15:46;98203.81;;;10.74;28.07
68508;BME280;55510;49.560;19.090;2023-02-10T11:18:58;98191.09;;;10.27;28.61
68508;BME280;55510;49.560;19.090;2023-02-10T11:22:00;98192.06;;;10.20;28.69
68508;BME280;55510;49.560;19.090;2023-02-10T11:25:16;98192.25;;;10.53;28.63
68508;BME280;55510;49.560;19.090;2023-02-10T11:28:26;98174.16;;;8.99;30.98
68508;BME280;55510;49.560;19.090;2023-02-10T11:31:31;98173.84;;;8.88;31.25
68508;BME280;55510;49.560;19.090;2023-02-10T11:34:39;98172.56;;;6.87;33.21
68508;BME280;55510;49.560;19.090;2023-02-10T11:37:52;98159.00;;;6.27;35.67
68508;BME280;55510;49.560;19.090;2023-02-10T11:40:59;98152.13;;;6.09;36.62
68508;BME280;55510;49.560;19.090;2023-02-10T11:44:02;98156.22;;;6.20;36.06
68508;BME280;55510;49.560;19.090;2023-02-10T11:47:10;98155.84;;;5.58;37.42
68508;BME280;55510;49.560;19.090;2023-02-10T11:50:19;98152.81;;;6.03;36.99
68508;BME280;55510;49.560;19.090;2023-02-10T11:53:26;98162.53;;;6.50;36.25
68508;BME280;55510;49.560;19.090;2023-02-10T12:00:31;98163.06;;;6.46;36.53
68508;BME280;55510;49.560;19.090;2023-02-10T12:10:45;98170.44;;;7.29;34.52
68508;BME280;55510;49.560;19.090;2023-02-10T12:14:03;98167.63;;;7.07;35.81
68508;BME280;55510;49.560;19.090;2023-02-10T12:34:38;98165.47;;;4.33;43.68
68508;BME280;55510;49.560;19.090;2023-02-10T12:37:55;98164.19;;;4.46;43.38
68508;BME280;55510;49.560;19.090;2023-02-10T12:41:20;98158.38;;;4.34;41.94
68508;BME280;55510;49.560;19.090;2023-02-10T12:44:43;98168.00;;;3.74;42.58
68508;BME280;55510;49.560;19.090;2023-02-10T12:49:02;98165.63;;;3.18;44.86
68508;BME280;55510;49.560;19.090;2023-02-10T12:55:18;98167.50;;;2.53;47.50
68508;BME280;55510;49.560;19.090;2023-02-10T13:01:44;98164.91;;;1.87;50.01
68508;BME280;55510;49.560;19.090;2023-02-10T13:04:50;98158.69;;;1.31;50.25
68508;BME280;55510;49.560;19.090;2023-02-10T13:07:54;98167.00;;;1.07;51.53
68508;BME280;55510;49.560;19.090;2023-02-10T13:11:02;98160.78;;;0.68;52.76
68508;BME280;55510;49.560;19.090;2023-02-10T13:14:24;98158.72;;;0.72;54.28
68508;BME280;55510;49.560;19.090;2023-02-10T13:17:36;98146.72;;;0.99;53.14
68508;BME280;55510;49.560;19.090;2023-02-10T13:21:09;98152.56;;;1.60;53.37
68508;BME280;55510;49.560;19.090;2023-02-10T13:24:24;98160.41;;;2.08;50.43
68508;BME280;55510;49.560;19.090;2023-02-10T13:38:05;98168.91;;;2.47;49.93
68508;BME280;55510;49.560;19.090;2023-02-10T13:40:57;98171.84;;;2.44;49.20
68508;BME280;55510;49.560;19.090;2023-02-10T13:44:28;98165.38;;;2.57;50.45
68508;BME280;55510;49.560;19.090;2023-02-10T13:47:47;98162.88;;;2.65;49.39
68508;BME280;55510;49.560;19.090;2023-02-10T13:50:52;98168.63;;;2.51;50.40
68508;BME280;55510;49.560;19.090;2023-02-10T13:53:53;98179.13;;;2.51;50.52
68508;BME280;55510;49.560;19.090;2023-02-10T13:56:55;98177.38;;;2.41;49.79
68508;BME280;55510;49.560;19.090;2023-02-10T14:00:20;98182.03;;;2.75;50.35
68508;BME280;55510;49.560;19.090;2023-02-10T14:03:27;98187.56;;;3.09;48.41
68508;BME280;55510;49.560;19.090;2023-02-10T14:06:37;98185.09;;;3.25;48.97
68508;BME280;55510;49.560;19.090;2023-02-10T14:09:38;98185.84;;;3.62;48.43
68508;BME280;55510;49.560;19.090;2023-02-10T14:12:39;98185.94;;;3.52;47.57
68508;BME280;55510;49.560;19.090;2023-02-10T14:15:40;98183.75;;;3.21;47.65
68508;BME280;55510;49.560;19.090;2023-02-10T14:18:43;98179.22;;;3.13;48.29
68508;BME280;55510;49.560;19.090;2023-02-10T14:21:45;98176.91;;;2.92;49.16
68508;BME280;55510;49.560;19.090;2023-02-10T14:24:47;98186.53;;;2.65;49.85
68508;BME280;55510;49.560;19.090;2023-02-10T14:27:49;98178.50;;;2.39;50.81
68508;BME280;55510;49.560;19.090;2023-02-10T14:30:56;98181.31;;;2.55;50.45
68508;BME280;55510;49.560;19.090;2023-02-10T14:34:04;98180.81;;;2.42;50.64
68508;BME280;55510;49.560;19.090;2023-02-10T14:37:18;98190.56;;;2.03;50.34
68508;BME280;55510;49.560;19.090;2023-02-10T14:40:21;98188.97;;;1.73;51.17
68508;BME280;55510;49.560;19.090;2023-02-10T14:43:25;98184.38;;;1.47;52.35
68508;BME280;55510;49.560;19.090;2023-02-10T14:46:29;98188.81;;;1.27;53.27
68508;BME280;55510;49.560;19.090;2023-02-10T14:49:30;98182.34;;;1.01;54.26
68508;BME280;55510;49.560;19.090;2023-02-10T14:52:46;98194.31;;;0.75;55.28
68508;BME280;55510;49.560;19.090;2023-02-10T14:55:55;98195.69;;;0.69;56.40
68508;BME280;55510;49.560;19.090;2023-02-10T14:58:57;98199.78;;;0.62;56.41
68508;BME280;55510;49.560;19.090;2023-02-10T15:01:59;98191.25;;;0.60;57.25
68508;BME280;55510;49.560;19.090;2023-02-10T15:05:06;98186.50;;;0.43;57.35
68508;BME280;55510;49.560;19.090;2023-02-10T15:08:16;98194.22;;;0.35;57.88
68508;BME280;55510;49.560;19.090;2023-02-10T15:11:25;98199.53;;;0.14;58.27
68508;BME280;55510;49.560;19.090;2023-02-10T15:17:52;98204.47;;;-0.24;59.21
68508;BME280;55510;49.560;19.090;2023-02-10T15:21:02;98210.66;;;-0.46;59.81
68508;BME280;55510;49.560;19.090;2023-02-10T15:24:03;98205.63;;;-0.59;61.04
68508;BME280;55510;49.560;19.090;2023-02-10T15:27:18;98198.66;;;-0.70;61.58
68508;BME280;55510;49.560;19.090;2023-02-10T15:30:26;98203.25;;;-0.83;61.63
68508;BME280;55510;49.560;19.090;2023-02-10T15:33:37;98203.56;;;-0.98;62.81
68508;BME280;55510;49.560;19.090;2023-02-10T15:36:46;98210.50;;;-1.08;63.29
68508;BME280;55510;49.560;19.090;2023-02-10T15:39:58;98207.13;;;-1.32;65.54
68508;BME280;55510;49.560;19.090;2023-02-10T15:43:04;98207.75;;;-1.51;67.18
68508;BME280;55510;49.560;19.090;2023-02-10T15:46:15;98205.75;;;-1.70;68.59
68508;BME280;55510;49.560;19.090;2023-02-10T15:49:19;98213.81;;;-1.84;68.94
68508;BME280;55510;49.560;19.090;2023-02-10T15:52:23;98219.19;;;-1.97;69.69
68508;BME280;55510;49.560;19.090;2023-02-10T15:55:30;98222.25;;;-2.15;70.56
68508;BME280;55510;49.560;19.090;2023-02-10T15:58:31;98217.97;;;-2.27;71.18
68508;BME280;55510;49.560;19.090;2023-02-10T16:01:32;98228.47;;;-2.40;72.13
68508;BME280;55510;49.560;19.090;2023-02-10T16:04:32;98220.66;;;-2.52;72.76
68508;BME280;55510;49.560;19.090;2023-02-10T16:07:33;98220.25;;;-2.58;73.41
68508;BME280;55510;49.560;19.090;2023-02-10T16:10:34;98223.88;;;-2.72;73.52
68508;BME280;55510;49.560;19.090;2023-02-10T16:13:35;98228.63;;;-2.78;74.36
68508;BME280;55510;49.560;19.090;2023-02-10T16:16:41;98233.47;;;-2.84;74.81
68508;BME280;55510;49.560;19.090;2023-02-10T16:19:42;98223.09;;;-2.97;75.18
68508;BME280;55510;49.560;19.090;2023-02-10T16:22:45;98238.47;;;-3.06;76.04
68508;BME280;55510;49.560;19.090;2023-02-10T16:25:47;98238.28;;;-3.15;76.44
68508;BME280;55510;49.560;19.090;2023-02-10T16:28:49;98241.94;;;-3.18;77.16
68508;BME280;55510;49.560;19.090;2023-02-10T16:31:50;98242.06;;;-3.19;77.36
68508;BME280;55510;49.560;19.090;2023-02-10T16:34:51;98248.09;;;-3.19;77.67
68508;BME280;55510;49.560;19.090;2023-02-10T16:37:53;98257.09;;;-3.36;77.92
68508;BME280;55510;49.560;19.090;2023-02-10T16:40:53;98247.78;;;-3.52;77.90
68508;BME280;55510;49.560;19.090;2023-02-10T16:43:54;98250.41;;;-3.65;78.57
68508;BME280;55510;49.560;19.090;2023-02-10T16:46:55;98256.47;;;-3.77;79.46
68508;BME280;55510;49.560;19.090;2023-02-10T16:49:57;98257.19;;;-3.88;80.42
68508;BME280;55510;49.560;19.090;2023-02-10T16:52:58;98266.50;;;-3.97;80.51
68508;BME280;55510;49.560;19.090;2023-02-10T16:55:59;98264.69;;;-4.09;80.64
68508;BME280;55510;49.560;19.090;2023-02-10T16:59:02;98275.22;;;-4.24;79.95
68508;BME280;55510;49.560;19.090;2023-02-10T17:02:03;98267.59;;;-4.40;80.95
68508;BME280;55510;49.560;19.090;2023-02-10T17:05:04;98266.75;;;-4.53;81.41
68508;BME280;55510;49.560;19.090;2023-02-10T17:08:05;98262.69;;;-4.57;81.94
68508;BME280;55510;49.560;19.090;2023-02-10T17:11:05;98265.88;;;-4.67;81.92
68508;BME280;55510;49.560;19.090;2023-02-10T17:14:08;98268.88;;;-4.73;82.61
68508;BME280;55510;49.560;19.090;2023-02-10T17:17:09;98269.94;;;-4.75;83.13
68508;BME280;55510;49.560;19.090;2023-02-10T17:20:31;98271.06;;;-4.79;84.01
68508;BME280;55510;49.560;19.090;2023-02-10T17:23:33;98264.41;;;-4.84;84.37
68508;BME280;55510;49.560;19.090;2023-02-10T17:26:34;98264.91;;;-4.91;84.24
68508;BME280;55510;49.560;19.090;2023-02-10T17:29:35;98264.84;;;-5.04;84.55
68508;BME280;55510;49.560;19.090;2023-02-10T17:32:35;98274.41;;;-5.05;84.41
68508;BME280;55510;49.560;19.090;2023-02-10T17:35:37;98269.91;;;-5.16;84.63
68508;BME280;55510;49.560;19.090;2023-02-10T17:38:37;98269.50;;;-5.37;83.39
68508;BME280;55510;49.560;19.090;2023-02-10T17:41:51;98272.19;;;-5.53;84.49
68508;BME280;55510;49.560;19.090;2023-02-10T17:44:54;98280.94;;;-5.69;84.52
68508;BME280;55510;49.560;19.090;2023-02-10T17:47:54;98282.50;;;-5.80;85.70
68508;BME280;55510;49.560;19.090;2023-02-10T17:51:06;98278.16;;;-5.94;86.52